Weather at WAVY TV Heliport

Public forecast

Using degrees Fahrenheit for public forecast. Weather courtesy of forecast.io.

Closest aviation weather report (METAR) to WAVY TV Heliport

Closest report is Norfolk International Airport, 6.1 nm (11.3 km) NE. Retrieved 2020/12/04 11:51 UTC (57 minutes ago):

KORF 041151Z 22012KT 10SM FEW120 09/M01 A3020 RMK AO2 SLP225 T00891006 10089 20056 56010

Closest aviation forecast (TAF) to WAVY TV Heliport

Closest forecast is Norfolk International Airport, 6.1 nm (11.3 km) NE. Retrieved 2020/12/04 12:33 UTC (15 minutes ago):

TAF KORF 041131Z 0412/0512 22007KT P6SM VCSH BKN120 FM041500 21011G17KT P6SM BKN100 FM042300 20010KT P6SM BKN050 FM050200 17007KT P6SM OVC035 FM050400 17008KT 3SM SHRA BR OVC020 WS020/20045KT FM051100 30020G32KT 5SM -RA OVC020